Terminal Aerodrome Forecast
Issued by NWS Charleston, WV

Current Version | Previous Version | Graphics & Text | Print | Product List | Glossary On
Versions: 1 2 3 4 5 6 7 8 9 10 11 12 13 14 15 16 17 18 19 20 21 22
000
FTUS41 KRLX 170200 AAA
TAFEKN
TAF AMD
KEKN 170247Z 1703/1724 17006KT P6SM SCT040 BKN080
     FM171000 23007KT P6SM BKN024
     FM171300 24005KT 5SM -SHRA BR OVC015
     FM171800 28005KT 6SM HZ BKN020
     FM172100 29006KT P6SM SCT025=

USA.gov is the U.S. government's official web portal to all federal, state and local government web resources and services.